Time;durP1;ratioP1;P1;durP2;ratioP2;P2;SDS_P1;SDS_P2;PMS_P1;PMS_P2;Temp;Humidity;BMP_temperature;BMP_pressure;BME280_temperature;BME280_humidity;BME280_pressure;Samples;Min_cycle;Max_cycle;Signal;HPM_P1;HPM_P2
2022/06/17 00:00:15;;;;;;;2.92;2.72;;;;;;;14.94;70.04;101699.66;5006773;27;20075;-70
2022/06/17 00:02:41;;;;;;;3.78;2.58;;;;;;;14.82;70.15;101698.97;4986360;28;20017;-70
2022/06/17 00:05:07;;;;;;;2.70;2.60;;;;;;;14.94;70.04;101697.00;4993434;28;20037;-69
2022/06/17 00:07:32;;;;;;;3.10;2.90;;;;;;;14.93;70.22;101696.16;4988733;28;20096;-70
2022/06/17 00:09:58;;;;;;;4.70;2.55;;;;;;;14.77;70.01;101688.72;4989177;28;20044;-70
2022/06/17 00:12:23;;;;;;;3.40;3.10;;;;;;;14.79;69.81;101693.09;4986436;28;20959;-70
2022/06/17 00:17:32;;;;;;;;;;;;;;;14.42;70.82;101703.44;4992461;28;20755;-70
2022/06/17 00:19:58;;;;;;;3.13;2.87;;;;;;;14.45;70.79;101701.47;5006794;28;19911;-69
2022/06/17 00:22:25;;;;;;;3.42;2.97;;;;;;;14.46;71.25;101692.50;4992954;28;20746;-69
2022/06/17 00:24:51;;;;;;;4.78;2.78;;;;;;;14.36;71.43;101688.00;4975578;28;20022;-70
2022/06/17 00:27:16;;;;;;;3.70;2.80;;;;;;;14.23;71.57;101692.75;4974753;28;20048;-70
2022/06/17 00:29:42;;;;;;;3.10;2.85;;;;;;;14.13;71.95;101691.88;4974761;28;20030;-69
2022/06/17 00:32:07;;;;;;;3.20;2.90;;;;;;;14.12;72.31;101692.88;4980772;28;20018;-68
2022/06/17 00:34:33;;;;;;;3.13;2.92;;;;;;;14.04;72.72;101688.22;5008384;28;20666;-70
2022/06/17 00:36:59;;;;;;;5.57;3.00;;;;;;;14.09;72.71;101678.00;4988720;28;20052;-70
2022/06/17 00:39:32;;;;;;;3.50;3.20;;;;;;;14.02;72.94;101685.69;4972556;28;20087;-70
2022/06/17 00:42:07;;;;;;;3.42;3.05;;;;;;;14.05;72.87;101682.75;4975698;28;20044;-68
2022/06/17 00:44:59;;;;;;;3.03;2.92;;;;;;;14.00;72.86;101678.81;4991775;28;20010;-69
2022/06/17 00:47:42;;;;;;;4.05;3.38;;;;;;;14.01;72.67;101689.31;4970777;28;20351;-70
2022/06/17 00:50:15;;;;;;;3.17;2.85;;;;;;;14.10;72.32;101679.69;5023259;27;20984;-69
2022/06/17 00:52:47;;;;;;;4.38;3.10;;;;;;;14.25;71.68;101680.13;5015366;27;20061;-69
2022/06/17 00:55:25;;;;;;;3.03;2.83;;;;;;;14.09;72.50;101681.50;4995336;27;20017;-68
2022/06/17 00:57:51;;;;;;;3.22;3.00;;;;;;;13.97;72.82;101687.91;4994591;27;20173;-70
2022/06/17 01:00:19;;;;;;;2.95;2.65;;;;;;;13.94;73.00;101680.19;4998298;28;20010;-69
2022/06/17 01:02:53;;;;;;;3.20;3.00;;;;;;;13.87;73.28;101679.88;4973562;27;20009;-69
2022/06/17 01:05:30;;;;;;;3.30;3.00;;;;;;;13.83;73.47;101674.97;5012615;27;20013;-71
2022/06/17 01:08:03;;;;;;;3.30;3.10;;;;;;;13.75;74.32;101673.00;5010801;27;20029;-69
2022/06/17 01:10:29;;;;;;;3.28;3.05;;;;;;;13.79;74.44;101681.56;4994342;27;20055;-68
2022/06/17 01:13:03;;;;;;;3.50;3.20;;;;;;;13.83;74.29;101678.50;4994951;27;20546;-69
2022/06/17 01:15:29;;;;;;;2.92;2.80;;;;;;;13.73;74.75;101678.47;4997546;27;20005;-70
2022/06/17 01:17:55;;;;;;;4.05;2.83;;;;;;;13.82;74.77;101678.63;4995469;27;20030;-70
2022/06/17 01:20:20;;;;;;;3.20;3.00;;;;;;;13.85;74.41;101681.84;5011230;27;20008;-70
2022/06/17 01:22:48;;;;;;;3.13;2.88;;;;;;;13.79;74.71;101678.88;4980140;27;20569;-70
2022/06/17 01:25:22;;;;;;;3.40;3.10;;;;;;;13.80;75.12;101685.91;4994983;27;20020;-69
2022/06/17 01:27:49;;;;;;;3.20;3.05;;;;;;;13.93;74.94;101670.53;4994737;27;20057;-71
2022/06/17 01:30:22;;;;;;;3.47;3.10;;;;;;;14.06;74.29;101671.13;4999058;27;19998;-69
2022/06/17 01:32:47;;;;;;;3.25;3.05;;;;;;;13.86;74.79;101677.38;4996306;28;20063;-68
2022/06/17 01:35:13;;;;;;;3.53;3.33;;;;;;;13.72;75.09;101682.09;5011481;28;20121;-70
2022/06/17 01:37:38;;;;;;;3.22;3.03;;;;;;;13.78;75.05;101683.38;4992601;28;20142;-71
2022/06/17 01:40:04;;;;;;;4.88;3.15;;;;;;;13.87;74.60;101693.19;4992936;28;20009;-70
2022/06/17 01:42:29;;;;;;;3.00;2.80;;;;;;;13.79;75.14;101693.06;4975996;28;20010;-69
2022/06/17 01:44:55;;;;;;;3.40;2.85;;;;;;;13.89;74.77;101698.41;5007851;28;20029;-69
2022/06/17 01:47:23;;;;;;;4.20;3.03;;;;;;;13.97;74.37;101703.03;4975169;28;20037;-69
2022/06/17 01:49:57;;;;;;;4.00;3.20;;;;;;;13.77;74.95;101700.31;4977151;28;20016;-72
2022/06/17 01:52:26;;;;;;;3.10;3.00;;;;;;;13.82;75.15;101699.91;5016801;27;20024;-69
2022/06/17 01:54:59;;;;;;;3.00;2.90;;;;;;;13.72;75.42;101699.84;5034622;27;20038;-69
2022/06/17 01:57:28;;;;;;;3.70;3.37;;;;;;;13.64;75.67;101708.53;5053360;27;20051;-69
2022/06/17 01:59:57;;;;;;;3.22;3.05;;;;;;;13.74;75.22;101711.22;5015096;28;20076;-68
2022/06/17 02:02:22;;;;;;;3.60;3.30;;;;;;;13.68;75.53;101704.63;4990653;28;20419;-70
2022/06/17 02:04:54;;;;;;;3.30;3.00;;;;;;;13.59;75.90;101705.41;4977320;28;20929;-70
2022/06/17 02:07:26;;;;;;;3.35;2.88;;;;;;;13.53;75.85;101704.13;4974462;28;20002;-69
2022/06/17 02:09:51;;;;;;;3.20;3.00;;;;;;;13.44;76.24;101696.09;4992954;28;20029;-69
2022/06/17 02:12:17;;;;;;;3.25;3.08;;;;;;;13.36;76.39;101700.25;5001485;28;20090;-69
2022/06/17 02:14:43;;;;;;;3.22;2.90;;;;;;;13.35;76.53;101698.59;4982551;27;20032;-70
2022/06/17 02:17:08;;;;;;;3.75;3.13;;;;;;;13.35;76.70;101689.75;4980520;28;20009;-69
2022/06/17 02:19:35;;;;;;;3.08;2.88;;;;;;;13.36;76.60;101700.25;5000463;28;20086;-70
2022/06/17 02:22:08;;;;;;;3.75;3.42;;;;;;;13.27;76.87;101700.16;4981150;27;20017;-70
2022/06/17 02:24:33;;;;;;;3.53;3.22;;;;;;;13.21;77.39;101704.19;5003765;27;20469;-70
2022/06/17 02:27:01;;;;;;;3.63;3.42;;;;;;;13.23;77.34;101699.59;4979483;28;20540;-71
2022/06/17 02:29:28;;;;;;;3.25;3.05;;;;;;;13.16;77.18;101696.63;4988963;27;20060;-70
2022/06/17 02:31:53;;;;;;;3.25;3.15;;;;;;;13.22;77.09;101704.06;4996454;28;20038;-70
2022/06/17 02:34:19;;;;;;;3.63;3.25;;;;;;;13.20;77.20;101694.56;5001181;28;20037;-72
2022/06/17 02:36:56;;;;;;;3.38;3.03;;;;;;;13.16;77.30;101706.41;4997937;28;20021;-71
2022/06/17 02:39:22;;;;;;;3.25;3.08;;;;;;;13.12;77.31;101712.97;4983220;28;20120;-71
2022/06/17 02:41:47;;;;;;;3.28;3.00;;;;;;;13.08;77.30;101706.22;4983877;28;20018;-71
2022/06/17 02:44:20;;;;;;;3.00;2.88;;;;;;;13.12;77.23;101707.66;4983079;28;20025;-69
2022/06/17 02:46:46;;;;;;;3.25;3.05;;;;;;;13.06;77.42;101706.34;4983767;28;20533;-70
2022/06/17 02:49:14;;;;;;;3.30;3.00;;;;;;;13.17;77.03;101711.59;4972122;27;20578;-70
2022/06/17 02:51:39;;;;;;;3.30;3.00;;;;;;;13.08;77.29;101712.38;5023690;27;20968;-68
2022/06/17 02:54:05;;;;;;;3.85;3.00;;;;;;;13.15;76.97;101715.34;5001938;28;20029;-70
2022/06/17 02:56:32;;;;;;;3.40;3.10;;;;;;;12.97;77.50;101723.91;4985482;28;20264;-70
2022/06/17 02:59:25;;;;;;;4.47;3.35;;;;;;;12.98;77.90;101720.25;4990216;27;20024;-68
2022/06/17 03:01:53;;;;;;;3.55;3.25;;;;;;;12.93;77.93;101725.13;5030600;27;20106;-69
2022/06/17 03:04:25;;;;;;;6.53;3.13;;;;;;;12.93;77.98;101729.59;4972309;28;20013;-70
2022/06/17 03:06:50;;;;;;;3.90;3.63;;;;;;;12.94;78.04;101731.28;5004589;28;20156;-70
2022/06/17 03:09:29;;;;;;;3.35;3.15;;;;;;;12.86;78.34;101726.59;4987324;28;20073;-67
2022/06/17 03:12:02;;;;;;;4.80;3.42;;;;;;;12.89;77.97;101729.03;5004820;28;20013;-69
2022/06/17 03:14:31;;;;;;;3.33;3.00;;;;;;;12.96;77.92;101735.50;4990788;28;20099;-70
2022/06/17 03:16:58;;;;;;;3.10;3.00;;;;;;;13.01;77.41;101743.91;4992518;28;20073;-68
2022/06/17 03:19:25;;;;;;;3.40;3.10;;;;;;;12.88;77.92;101744.09;5010270;27;20009;-69
2022/06/17 03:21:51;;;;;;;3.40;3.10;;;;;;;12.97;77.73;101741.66;4994253;27;20031;-69
2022/06/17 03:24:28;;;;;;;3.20;3.00;;;;;;;12.97;77.94;101731.03;5011688;27;20829;-68
2022/06/17 03:26:56;;;;;;;3.30;3.08;;;;;;;12.92;77.93;101730.59;5028108;27;20081;-68
2022/06/17 03:29:22;;;;;;;3.47;3.20;;;;;;;12.83;78.34;101737.47;5010189;27;20347;-70
2022/06/17 03:31:51;;;;;;;5.07;2.97;;;;;;;12.83;78.38;101741.00;5016155;28;20034;-70
2022/06/17 03:34:22;;;;;;;5.68;2.80;;;;;;;12.86;78.12;101738.06;5010105;28;20037;-70
2022/06/17 03:37:00;;;;;;;3.20;3.00;;;;;;;12.81;78.49;101742.91;5004672;28;20041;-70
2022/06/17 03:39:41;;;;;;;3.35;3.10;;;;;;;12.85;78.47;101754.16;5012884;28;20024;-69
2022/06/17 03:42:32;;;;;;;3.55;3.00;;;;;;;12.86;78.17;101746.06;5001712;27;20022;-68
2022/06/17 03:45:14;;;;;;;3.00;2.90;;;;;;;12.84;78.33;101753.28;4990519;28;20081;-70
2022/06/17 03:48:01;;;;;;;2.85;2.70;;;;;;;12.85;78.18;101748.84;4978623;28;20014;-70
2022/06/17 03:50:37;;;;;;;3.97;3.10;;;;;;;12.87;78.30;101758.38;4988235;28;20066;-69
2022/06/17 03:53:27;;;;;;;3.78;2.83;;;;;;;13.00;77.75;101763.50;4978933;28;20958;-70
2022/06/17 03:55:55;;;;;;;3.65;3.00;;;;;;;12.98;77.97;101741.53;4957887;28;20060;-70
2022/06/17 03:58:20;;;;;;;3.40;3.10;;;;;;;12.91;78.08;101750.13;4958219;28;20060;-71
2022/06/17 04:00:52;;;;;;;3.78;2.85;;;;;;;12.82;78.75;101752.59;4995325;28;20117;-67
2022/06/17 04:03:20;;;;;;;2.88;2.78;;;;;;;12.83;79.15;101761.38;5013716;27;20385;-68
2022/06/17 04:05:49;;;;;;;2.83;2.63;;;;;;;12.92;78.59;101759.81;4996003;27;20015;-69
2022/06/17 04:08:14;;;;;;;3.40;3.20;;;;;;;12.90;78.77;101762.56;5015008;27;20017;-71
2022/06/17 04:10:40;;;;;;;4.03;3.17;;;;;;;12.90;78.75;101762.56;4998400;28;20068;-69
2022/06/17 04:13:05;;;;;;;3.45;3.10;;;;;;;12.96;78.88;101762.06;4980328;28;20028;-69
2022/06/17 04:15:59;;;;;;;3.58;3.38;;;;;;;12.95;78.83;101757.72;4997160;27;20013;-69
2022/06/17 04:18:24;;;;;;;3.13;2.92;;;;;;;12.96;78.95;101755.91;5009657;27;20065;-67
2022/06/17 04:20:52;;;;;;;5.53;2.78;;;;;;;12.94;79.04;101753.38;5039340;27;20484;-67
2022/06/17 04:23:25;;;;;;;2.95;2.75;;;;;;;12.94;79.22;101745.41;5010462;28;20024;-72
2022/06/17 04:25:57;;;;;;;3.45;3.20;;;;;;;13.03;79.11;101754.44;4996437;28;20036;-69
2022/06/17 04:28:46;;;;;;;3.00;2.80;;;;;;;13.22;78.46;101764.34;4994741;28;20013;-71
2022/06/17 04:31:15;;;;;;;2.92;2.83;;;;;;;13.16;78.82;101772.84;4995227;27;20001;-71
2022/06/17 04:33:50;;;;;;;2.92;2.72;;;;;;;13.22;78.92;101780.31;5005959;27;20538;-70
2022/06/17 04:36:28;;;;;;;4.03;3.10;;;;;;;13.29;78.66;101778.81;4997905;27;20012;-70
2022/06/17 04:38:57;;;;;;;3.20;3.00;;;;;;;13.38;78.81;101777.22;4995078;27;20426;-69
2022/06/17 04:41:25;;;;;;;3.60;2.92;;;;;;;13.40;78.41;101781.44;5012401;27;20014;-69
2022/06/17 04:43:52;;;;;;;3.75;2.85;;;;;;;13.52;78.00;101773.41;4997532;27;20024;-70
2022/06/17 04:46:23;;;;;;;2.97;2.88;;;;;;;13.52;78.38;101773.41;4997064;27;20120;-70
2022/06/17 04:48:49;;;;;;;3.10;2.80;;;;;;;13.68;77.88;101773.78;4989950;28;20012;-70
2022/06/17 04:51:14;;;;;;;4.30;2.92;;;;;;;13.70;77.72;101776.31;4994390;27;20025;-70
2022/06/17 04:53:42;;;;;;;3.45;3.15;;;;;;;13.91;77.38;101784.25;5018801;27;20330;-69
2022/06/17 04:56:10;;;;;;;5.18;3.50;;;;;;;13.89;77.32;101771.09;4988928;27;20029;-70
2022/06/17 04:58:35;;;;;;;6.15;3.40;;;;;;;13.97;76.96;101773.06;4990192;27;20037;-69
2022/06/17 05:01:01;;;;;;;4.40;3.45;;;;;;;14.10;77.25;101767.53;5009982;27;20013;-71
2022/06/17 05:03:28;;;;;;;4.55;3.35;;;;;;;14.16;76.85;101768.81;4993298;27;20767;-71
2022/06/17 05:05:53;;;;;;;3.40;3.20;;;;;;;14.17;77.29;101765.16;4994932;28;20016;-70
2022/06/17 05:08:31;;;;;;;3.33;2.60;;;;;;;14.23;77.19;101772.63;4984194;27;20452;-68
2022/06/17 05:11:07;;;;;;;3.13;2.78;;;;;;;14.41;76.73;101770.97;4995254;28;20021;-68
2022/06/17 05:13:41;;;;;;;2.70;2.55;;;;;;;14.47;76.93;101771.38;4987686;27;20034;-70
2022/06/17 05:16:12;;;;;;;3.17;3.00;;;;;;;14.62;76.46;101772.72;4973567;28;20075;-68
2022/06/17 05:18:37;;;;;;;3.83;3.05;;;;;;;14.88;75.48;101777.53;4976708;28;20032;-69
2022/06/17 05:21:03;;;;;;;4.40;4.10;;;;;;;14.94;74.72;101772.44;5010825;27;20009;-69
2022/06/17 05:23:28;;;;;;;5.82;5.35;;;;;;;15.05;75.25;101776.81;4993624;28;20998;-69
2022/06/17 05:25:54;;;;;;;4.82;4.43;;;;;;;15.17;74.57;101776.66;4991085;28;20388;-69
2022/06/17 05:28:20;;;;;;;4.03;3.40;;;;;;;15.33;73.83;101776.94;4981824;28;20082;-69
2022/06/17 05:30:51;;;;;;;4.10;2.60;;;;;;;15.48;71.40;101779.97;4986120;27;20009;-68
2022/06/17 05:33:17;;;;;;;2.78;2.50;;;;;;;15.59;70.70;101771.81;4996971;28;20037;-67
2022/06/17 05:35:42;;;;;;;4.05;2.80;;;;;;;15.70;68.78;101773.47;5006062;27;20216;-69
2022/06/17 05:38:08;;;;;;;3.00;2.70;;;;;;;15.80;68.29;101774.31;5007753;27;20013;-70
2022/06/17 05:40:34;;;;;;;3.33;2.45;;;;;;;15.93;68.84;101771.34;4998255;27;20017;-71
2022/06/17 05:42:59;;;;;;;2.90;2.70;;;;;;;16.08;67.25;101777.00;4988762;28;20034;-70
2022/06/17 05:45:26;;;;;;;4.93;2.65;;;;;;;16.14;66.44;101768.44;5001121;27;20017;-69
2022/06/17 05:47:52;;;;;;;2.53;2.17;;;;;;;16.26;66.29;101768.22;4997337;27;20253;-70
2022/06/17 05:50:18;;;;;;;10.93;2.92;;;;;;;16.37;66.32;101762.69;5033062;27;20861;-70
2022/06/17 05:52:48;;;;;;;2.50;2.25;;;;;;;16.53;65.64;101753.16;5003958;27;20036;-69
2022/06/17 05:55:14;;;;;;;2.80;2.50;;;;;;;16.68;65.37;101756.13;5016555;27;20140;-71
2022/06/17 05:57:39;;;;;;;2.40;2.20;;;;;;;16.79;64.29;101753.22;5022202;28;20017;-68
2022/06/17 06:00:07;;;;;;;3.53;2.38;;;;;;;16.96;63.79;101751.56;4999684;27;20329;-70
2022/06/17 06:02:33;;;;;;;3.20;2.55;;;;;;;17.06;63.23;101752.34;4981463;28;20511;-70
2022/06/17 06:04:58;;;;;;;3.22;2.20;;;;;;;17.09;62.80;101752.03;5026060;28;20021;-69
2022/06/17 06:07:24;;;;;;;2.25;2.13;;;;;;;17.20;63.06;101740.22;5034759;27;20012;-69
2022/06/17 06:09:49;;;;;;;5.28;2.30;;;;;;;17.25;63.61;101750.47;5010788;28;20423;-70
2022/06/17 06:12:14;;;;;;;3.90;2.25;;;;;;;17.37;64.95;101745.69;5010075;28;20804;-70
2022/06/17 06:14:40;;;;;;;2.30;2.10;;;;;;;17.46;63.75;101756.28;4998932;28;20025;-70
2022/06/17 06:17:05;;;;;;;2.35;2.22;;;;;;;17.56;64.26;101761.53;4986473;28;20021;-69
2022/06/17 06:19:31;;;;;;;5.15;2.40;;;;;;;17.73;63.19;101742.91;5014970;28;20018;-68
2022/06/17 06:21:57;;;;;;;2.60;2.30;;;;;;;17.84;62.67;101751.50;5035674;27;20011;-70
2022/06/17 06:24:22;;;;;;;3.05;2.05;;;;;;;17.95;62.58;101750.41;5021435;28;20004;-70
2022/06/17 06:26:48;;;;;;;2.78;2.00;;;;;;;18.07;62.59;101747.44;5010275;28;20016;-70
2022/06/17 06:29:13;;;;;;;2.28;2.08;;;;;;;18.15;63.66;101745.63;5004202;28;20414;-71
2022/06/17 06:31:39;;;;;;;2.28;1.90;;;;;;;18.10;62.83;101747.94;5000538;28;20029;-69
2022/06/17 06:34:04;;;;;;;2.28;2.10;;;;;;;18.12;63.06;101745.97;4985179;28;20983;-69
2022/06/17 06:36:30;;;;;;;2.20;2.00;;;;;;;18.09;62.64;101735.56;4986030;28;20009;-70
2022/06/17 06:38:55;;;;;;;2.33;2.00;;;;;;;18.04;62.98;101739.72;4969973;28;20045;-71
2022/06/17 06:41:21;;;;;;;4.00;2.30;;;;;;;18.06;64.75;101725.16;4973718;28;20051;-70
2022/06/17 06:43:47;;;;;;;1.98;1.88;;;;;;;17.98;63.73;101727.84;5026115;28;20105;-69
2022/06/17 06:46:14;;;;;;;1.85;1.85;;;;;;;18.04;65.09;101732.53;5012204;28;20017;-71
2022/06/17 06:48:40;;;;;;;2.20;2.10;;;;;;;18.01;65.16;101725.66;5008490;28;20100;-71
2022/06/17 06:51:05;;;;;;;4.90;2.50;;;;;;;18.10;65.03;101742.59;5037658;27;20040;-70
2022/06/17 06:53:31;;;;;;;3.03;2.10;;;;;;;18.15;63.70;101739.44;5047013;27;20052;-70
2022/06/17 06:55:56;;;;;;;2.35;2.13;;;;;;;18.24;62.87;101745.66;5020083;27;20716;-69
2022/06/17 06:58:23;;;;;;;2.22;2.10;;;;;;;18.33;62.71;101741.97;5022182;27;20417;-71
2022/06/17 07:00:50;;;;;;;3.15;2.22;;;;;;;18.46;61.58;101734.31;4985711;28;20074;-71
2022/06/17 07:03:16;;;;;;;2.40;2.20;;;;;;;18.56;59.93;101736.00;4996341;28;20014;-70
2022/06/17 07:05:44;;;;;;;2.35;2.08;;;;;;;18.64;60.23;101733.31;4976855;27;20526;-70
2022/06/17 07:08:10;;;;;;;2.20;2.03;;;;;;;18.77;58.75;101739.06;4996582;27;20085;-68
2022/06/17 07:10:36;;;;;;;5.10;1.90;;;;;;;18.83;59.13;101738.38;4994809;27;20997;-70
2022/06/17 07:13:02;;;;;;;3.10;2.53;;;;;;;19.00;59.11;101733.06;4978439;27;20005;-70
2022/06/17 07:15:27;;;;;;;2.42;2.20;;;;;;;19.17;58.66;101734.72;4976982;27;20041;-70
2022/06/17 07:18:01;;;;;;;2.35;2.15;;;;;;;19.28;57.42;101732.69;4995256;27;20123;-68
2022/06/17 07:20:28;;;;;;;;;;;;;;;19.42;59.62;101732.00;4978717;27;20263;-70
2022/06/17 07:22:53;;;;;;;3.15;2.42;;;;;;;19.59;58.98;101737.31;5012364;27;20592;-69
2022/06/17 07:25:19;;;;;;;3.13;2.03;;;;;;;19.78;56.58;101742.28;4995839;27;20078;-72
2022/06/17 07:27:44;;;;;;;1.92;1.83;;;;;;;19.79;53.55;101749.38;4999944;28;20020;-70
2022/06/17 07:30:17;;;;;;;1.90;1.80;;;;;;;19.86;51.51;101736.91;5001432;27;20012;-69
2022/06/17 07:32:43;;;;;;;2.13;1.67;;;;;;;19.96;51.56;101731.34;4990398;27;20080;-70
2022/06/17 07:35:09;;;;;;;2.83;2.03;;;;;;;20.19;51.62;101734.09;4993063;27;20028;-70
2022/06/17 07:40:18;;;;;;;;;;;;;;;20.58;49.53;101729.66;4994737;28;20020;-71
2022/06/17 07:42:44;;;;;;;1.97;1.60;;;;;;;20.72;47.75;101734.28;5010132;28;19908;-71
2022/06/17 07:45:12;;;;;;;1.50;1.40;;;;;;;20.84;49.44;101737.41;4993799;28;20014;-69
2022/06/17 07:47:39;;;;;;;4.30;1.70;;;;;;;20.85;47.75;101730.97;4996630;28;21059;-71
2022/06/17 07:50:06;;;;;;;3.63;1.70;;;;;;;20.90;47.91;101735.84;4998916;27;20187;-69
2022/06/17 07:52:31;;;;;;;2.00;1.70;;;;;;;21.01;47.86;101737.22;5020427;27;20358;-70
2022/06/17 07:54:57;;;;;;;2.08;1.70;;;;;;;21.06;47.38;101738.34;5019050;27;20111;-71
2022/06/17 07:57:22;;;;;;;1.65;1.55;;;;;;;21.23;47.21;101740.91;5039148;27;20031;-71
2022/06/17 07:59:48;;;;;;;1.63;1.58;;;;;;;21.27;46.66;101745.72;5020382;27;20073;-69
2022/06/17 08:02:13;;;;;;;3.22;1.67;;;;;;;21.28;47.35;101739.34;5028730;27;20101;-70
2022/06/17 08:04:40;;;;;;;2.15;1.50;;;;;;;21.34;46.12;101736.94;5016422;27;20388;-69
2022/06/17 08:07:06;;;;;;;1.83;1.73;;;;;;;21.46;46.33;101740.84;5032532;27;20128;-73
2022/06/17 08:09:31;;;;;;;2.90;1.50;;;;;;;21.61;47.02;101747.09;4998733;27;20025;-70
2022/06/17 08:11:57;;;;;;;1.95;1.50;;;;;;;21.73;47.24;101749.31;4982787;28;20035;-71
2022/06/17 08:14:22;;;;;;;2.17;1.67;;;;;;;21.93;48.75;101749.59;5021664;27;20532;-72
2022/06/17 08:16:47;;;;;;;2.53;1.63;;;;;;;21.98;45.67;101743.66;5019153;27;20358;-72
2022/06/17 08:19:13;;;;;;;2.28;1.80;;;;;;;22.22;45.14;101755.97;4982821;27;20033;-71
2022/06/17 08:21:38;;;;;;;1.67;1.58;;;;;;;22.33;46.26;101746.56;4993969;28;20068;-70
2022/06/17 08:24:04;;;;;;;3.25;1.73;;;;;;;22.38;47.29;101744.13;4977910;28;20061;-69
2022/06/17 08:26:29;;;;;;;1.70;1.60;;;;;;;22.43;46.47;101733.63;5008187;28;20018;-69
2022/06/17 08:28:55;;;;;;;1.73;1.63;;;;;;;22.47;44.34;101727.63;4996444;28;20841;-70
2022/06/17 08:31:20;;;;;;;3.65;1.73;;;;;;;22.62;44.82;101732.16;4996233;27;21865;-71
2022/06/17 08:33:46;;;;;;;3.72;1.73;;;;;;;22.64;44.36;101730.91;4997353;28;20034;-71
2022/06/17 08:36:14;;;;;;;5.40;1.83;;;;;;;22.61;43.66;101731.31;4995083;28;20017;-70
2022/06/17 08:38:43;;;;;;;4.65;1.80;;;;;;;22.60;45.32;101716.16;4966123;27;20235;-70
2022/06/17 08:41:25;;;;;;;1.77;1.67;;;;;;;22.67;44.56;101716.22;5015548;27;20013;-69
2022/06/17 08:44:22;;;;;;;1.85;1.60;;;;;;;22.85;45.34;101712.22;5035101;27;20017;-71
2022/06/17 08:47:15;;;;;;;2.65;1.60;;;;;;;23.04;44.53;101710.69;5037951;27;20013;-71
2022/06/17 08:49:59;;;;;;;3.13;1.50;;;;;;;23.13;44.59;101707.69;5011138;27;20780;-70
2022/06/17 08:52:49;;;;;;;3.35;1.30;;;;;;;23.38;42.86;101709.94;4997171;28;20033;-71
2022/06/17 08:55:20;;;;;;;3.25;1.50;;;;;;;23.47;42.95;101711.44;4998855;28;20577;-71
2022/06/17 08:58:15;;;;;;;3.17;1.30;;;;;;;23.54;42.90;101714.19;5017351;28;20022;-71
2022/06/17 09:00:58;;;;;;;6.78;1.50;;;;;;;23.76;41.65;101716.78;5008345;27;20016;-71
2022/06/17 09:03:24;;;;;;;1.70;1.60;;;;;;;23.71;41.35;101706.59;5004685;27;20112;-71
2022/06/17 09:06:08;;;;;;;1.63;1.50;;;;;;;23.88;42.67;101700.88;5038766;27;20024;-70
2022/06/17 09:08:36;;;;;;;;;;;;;;;23.93;42.52;101703.78;5022285;27;20124;-70
2022/06/17 09:11:08;;;;;;;1.50;1.50;;;;;;;23.94;41.82;101705.47;5009762;28;20148;-70
2022/06/17 09:13:52;;;;;;;2.28;1.50;;;;;;;23.78;41.72;101695.81;5021214;28;20407;-71
2022/06/17 09:16:41;;;;;;;3.70;1.40;;;;;;;23.87;41.42;101694.59;5022600;28;20009;-71
2022/06/17 09:19:06;;;;;;;2.05;1.40;;;;;;;24.13;39.12;101693.88;5040853;27;20031;-71
2022/06/17 09:21:44;;;;;;;1.20;1.20;;;;;;;24.28;39.35;101695.56;5035345;27;20021;-71
2022/06/17 09:24:13;;;;;;;1.30;1.30;;;;;;;24.41;39.08;101697.47;5026022;27;20105;-71
2022/06/17 09:27:01;;;;;;;1.80;1.67;;;;;;;24.51;39.29;101685.19;4973112;28;20659;-69
2022/06/17 09:29:46;;;;;;;2.03;1.40;;;;;;;24.55;38.33;101682.06;5035729;27;20194;-70
2022/06/17 09:32:37;;;;;;;2.00;1.67;;;;;;;24.87;38.05;101685.84;5016647;28;20033;-69
2022/06/17 09:35:24;;;;;;;1.80;1.70;;;;;;;24.91;38.29;101689.81;4979708;28;20032;-69
2022/06/17 09:37:55;;;;;;;1.40;1.40;;;;;;;24.85;38.86;101688.78;5025930;28;20057;-70
2022/06/17 09:40:20;;;;;;;2.97;1.30;;;;;;;24.95;39.36;101685.66;5025803;28;20127;-70
2022/06/17 09:42:51;;;;;;;2.05;1.40;;;;;;;25.01;39.17;101679.38;5006944;28;20442;-71
2022/06/17 09:45:27;;;;;;;1.77;1.30;;;;;;;25.35;37.36;101682.91;4990171;28;20425;-70
2022/06/17 09:48:14;;;;;;;1.55;1.40;;;;;;;25.73;40.10;101670.47;4993280;27;20098;-70
2022/06/17 09:50:39;;;;;;;1.45;1.10;;;;;;;25.84;35.22;101675.19;4988902;28;20456;-70
2022/06/17 09:53:26;;;;;;;1.00;1.00;;;;;;;26.20;36.46;101671.06;5037467;28;20396;-70
2022/06/17 09:56:17;;;;;;;1.23;1.20;;;;;;;26.33;37.86;101675.59;5050979;27;20044;-70
2022/06/17 09:58:53;;;;;;;2.15;1.20;;;;;;;26.18;33.54;101677.78;5005759;28;20029;-69
2022/06/17 10:01:19;;;;;;;1.65;1.20;;;;;;;26.32;33.52;101671.19;5017835;28;20198;-71
2022/06/17 10:03:44;;;;;;;2.30;1.30;;;;;;;26.82;35.64;101664.16;5010050;28;20616;-70
2022/06/17 10:06:25;;;;;;;1.70;1.30;;;;;;;26.88;33.15;101664.09;5014965;28;20222;-71
2022/06/17 10:09:02;;;;;;;1.67;1.10;;;;;;;27.16;30.96;101664.66;4993956;28;20755;-70
2022/06/17 10:11:43;;;;;;;1.52;1.42;;;;;;;27.58;31.73;101665.66;5015014;28;20102;-70
2022/06/17 10:14:33;;;;;;;1.08;1.08;;;;;;;27.89;35.08;101663.81;4995938;28;20036;-71
2022/06/17 10:20:03;;;;;;;1.58;1.00;;;;;;;28.31;31.71;101657.56;5000572;28;20031;-69
2022/06/17 10:22:55;;;;;;;5.38;1.15;;;;;;;28.49;30.46;101653.09;5015425;28;20115;-72
2022/06/17 10:26:14;;;;;;;1.70;1.60;;;;;;;28.77;29.39;101645.09;4989926;28;20899;-70
2022/06/17 10:29:11;;;;;;;1.77;1.30;;;;;;;28.83;31.40;101642.50;4925000;28;20579;-71
2022/06/17 10:31:44;;;;;;;1.30;1.20;;;;;;;28.76;29.26;101642.59;4924029;28;20031;-70
2022/06/17 10:34:12;;;;;;;3.00;1.43;;;;;;;28.87;28.88;101633.59;4955256;28;20278;-71
2022/06/17 10:36:38;;;;;;;3.13;1.17;;;;;;;29.33;28.33;101636.53;4988562;28;20033;-69
2022/06/17 10:39:03;;;;;;;4.55;3.22;;;;;;;29.25;29.84;101628.72;4999844;28;20175;-71
2022/06/17 10:41:29;;;;;;;1.67;1.58;;;;;;;29.89;28.91;101641.44;4991072;28;20808;-70
2022/06/17 10:43:54;;;;;;;1.10;1.10;;;;;;;29.64;27.60;101646.16;4992996;28;20010;-70
2022/06/17 10:46:28;;;;;;;0.85;0.85;;;;;;;29.96;28.27;101648.38;4997569;28;20189;-71
2022/06/17 10:49:16;;;;;;;1.00;1.00;;;;;;;29.96;28.59;101651.13;4988766;27;20036;-70
2022/06/17 10:51:42;;;;;;;2.85;1.10;;;;;;;30.35;29.87;101657.78;5017998;27;20944;-70
2022/06/17 10:54:35;;;;;;;1.65;1.20;;;;;;;30.88;28.62;101663.84;4975104;27;20049;-70
2022/06/17 10:57:02;;;;;;;4.35;1.33;;;;;;;30.80;26.54;101648.69;4978062;28;20017;-70
2022/06/17 10:59:35;;;;;;;1.02;1.02;;;;;;;30.98;27.75;101650.31;4982821;27;20252;-70
2022/06/17 11:02:00;;;;;;;2.00;1.10;;;;;;;31.20;26.37;101655.00;5032347;27;20051;-71
2022/06/17 11:04:31;;;;;;;2.10;1.10;;;;;;;30.98;27.80;101653.88;4980686;27;20013;-70
2022/06/17 11:07:16;;;;;;;1.15;0.90;;;;;;;31.19;28.08;101647.88;4999134;27;20419;-71
2022/06/17 11:10:01;;;;;;;1.65;1.60;;;;;;;31.73;27.24;101642.53;5018106;27;20005;-70
2022/06/17 11:12:37;;;;;;;1.13;1.00;;;;;;;31.71;25.93;101631.00;5016155;27;20132;-70
2022/06/17 11:15:12;;;;;;;1.20;1.20;;;;;;;32.10;25.03;101633.56;5002042;27;20036;-70
2022/06/17 11:17:47;;;;;;;1.27;1.10;;;;;;;32.64;26.86;101629.06;4992925;28;20025;-70
2022/06/17 11:20:16;;;;;;;1.15;1.05;;;;;;;31.68;25.70;101631.53;5022712;27;20006;-70
2022/06/17 11:23:01;;;;;;;1.02;0.82;;;;;;;30.99;26.50;101625.44;5057691;27;20012;-69
2022/06/17 11:25:37;;;;;;;1.88;1.02;;;;;;;31.50;26.37;101619.84;5013067;27;20023;-70
2022/06/17 11:28:19;;;;;;;0.98;0.98;;;;;;;31.43;25.94;101619.22;4982287;28;20367;-70
2022/06/17 11:31:00;;;;;;;1.15;0.90;;;;;;;31.68;25.81;101621.41;4997744;28;20589;-70
2022/06/17 11:33:33;;;;;;;1.08;1.02;;;;;;;31.44;25.01;101617.28;5001365;27;20124;-70
2022/06/17 11:36:13;;;;;;;1.90;1.30;;;;;;;31.40;26.31;101619.69;5002545;27;20005;-69
2022/06/17 11:38:38;;;;;;;1.25;1.15;;;;;;;31.32;27.59;101625.59;5004140;27;20168;-70
2022/06/17 11:41:04;;;;;;;2.22;1.70;;;;;;;31.32;28.44;101621.00;5035130;27;20351;-71
2022/06/17 11:43:33;;;;;;;1.35;1.10;;;;;;;31.47;25.57;101619.50;5018388;27;20044;-71
2022/06/17 11:46:06;;;;;;;1.75;1.10;;;;;;;31.52;27.03;101609.44;5038237;27;20279;-70
2022/06/17 11:48:31;;;;;;;1.00;1.00;;;;;;;31.80;26.39;101606.72;4988535;27;20020;-71
2022/06/17 11:51:06;;;;;;;1.10;1.00;;;;;;;31.63;26.96;101594.00;4987701;28;20009;-71